createdAt,value
2018-06-22T00:02:20.734Z,2.80
2018-06-22T00:04:48.266Z,1.10
2018-06-22T00:07:15.813Z,4.33
2018-06-22T00:09:43.343Z,2.50
2018-06-22T00:12:10.853Z,3.03
2018-06-22T00:14:38.376Z,4.90
2018-06-22T00:17:05.900Z,2.27
2018-06-22T00:19:33.427Z,3.50
2018-06-22T00:22:00.956Z,6.47
2018-06-22T00:24:28.455Z,6.00
2018-06-22T00:26:55.970Z,4.73
2018-06-22T00:29:23.502Z,1.67
2018-06-22T00:31:51.040Z,2.70
2018-06-22T00:34:18.595Z,2.20
2018-06-22T00:36:46.155Z,4.30
2018-06-22T00:39:13.687Z,2.23
2018-06-22T00:41:41.224Z,2.73
2018-06-22T00:44:08.763Z,2.80
2018-06-22T00:46:36.675Z,4.27
2018-06-22T00:49:04.229Z,1.97
2018-06-22T00:51:31.771Z,2.47
2018-06-22T00:54:12.263Z,3.97
2018-06-22T00:56:39.795Z,2.57
2018-06-22T00:59:07.381Z,4.80
2018-06-22T01:01:34.923Z,3.13
2018-06-22T01:04:02.473Z,3.60
2018-06-22T01:06:29.998Z,1.97
2018-06-22T01:08:57.538Z,3.70
2018-06-22T01:11:25.098Z,4.93
2018-06-22T01:13:52.640Z,3.33
2018-06-22T01:16:20.187Z,4.37
2018-06-22T01:18:47.754Z,3.40
2018-06-22T01:21:15.309Z,2.53
2018-06-22T01:23:42.873Z,3.03
2018-06-22T01:26:10.417Z,7.17
2018-06-22T01:28:37.989Z,2.40
2018-06-22T01:31:05.585Z,3.43
2018-06-22T01:33:33.144Z,3.07
2018-06-22T01:36:00.678Z,2.67
2018-06-22T01:38:28.207Z,5.73
2018-06-22T01:40:55.735Z,4.10
2018-06-22T01:43:23.280Z,3.87
2018-06-22T01:45:50.819Z,5.50
2018-06-22T01:48:18.372Z,2.00
2018-06-22T01:50:45.931Z,2.73
2018-06-22T01:53:13.474Z,6.90
2018-06-22T01:55:41.004Z,5.73
2018-06-22T01:58:08.538Z,2.87
2018-06-22T02:00:36.105Z,3.40
2018-06-22T02:03:03.651Z,9.17
2018-06-22T02:05:31.195Z,3.17
2018-06-22T02:07:58.734Z,2.63
2018-06-22T02:10:26.268Z,9.00
2018-06-22T02:12:53.783Z,4.80
2018-06-22T02:15:21.318Z,3.37
2018-06-22T02:17:48.851Z,2.07
2018-06-22T02:20:16.396Z,2.23
2018-06-22T02:22:43.927Z,3.43
2018-06-22T02:25:11.469Z,3.07
2018-06-22T02:27:38.996Z,3.80
2018-06-22T02:30:06.543Z,4.13
2018-06-22T02:32:34.068Z,2.63
2018-06-22T02:35:01.599Z,4.23
2018-06-22T02:37:29.124Z,3.77
2018-06-22T02:39:56.637Z,3.30
2018-06-22T02:42:24.161Z,7.30
2018-06-22T02:44:51.682Z,2.73
2018-06-22T02:47:19.190Z,3.23
2018-06-22T02:49:46.698Z,1.47
2018-06-22T02:52:14.369Z,3.73
2018-06-22T02:54:41.901Z,4.33
2018-06-22T02:57:09.423Z,3.83
2018-06-22T02:59:36.949Z,3.83
2018-06-22T03:02:04.489Z,4.60
2018-06-22T03:04:32.008Z,2.33
2018-06-22T03:06:59.529Z,4.80
2018-06-22T03:09:27.129Z,2.33
2018-06-22T03:11:54.667Z,6.87
2018-06-22T03:14:22.209Z,5.20
2018-06-22T03:16:49.755Z,3.27
2018-06-22T03:19:17.289Z,1.77
2018-06-22T03:21:44.845Z,5.73
2018-06-22T03:24:12.355Z,4.60
2018-06-22T03:26:39.904Z,6.60
2018-06-22T03:29:07.420Z,2.47
2018-06-22T03:31:34.977Z,2.67
2018-06-22T03:34:02.500Z,5.50
2018-06-22T03:36:30.036Z,6.20
2018-06-22T03:38:57.761Z,3.17
2018-06-22T03:41:25.298Z,3.60
2018-06-22T03:43:52.819Z,3.43
2018-06-22T03:46:20.361Z,6.43
2018-06-22T03:48:47.891Z,3.90
2018-06-22T03:51:15.432Z,3.90
2018-06-22T03:53:42.960Z,4.73
2018-06-22T03:56:10.545Z,6.43
2018-06-22T03:58:38.072Z,3.83
2018-06-22T04:01:05.623Z,2.47
2018-06-22T04:03:33.153Z,3.53
2018-06-22T04:06:00.696Z,3.90
2018-06-22T04:08:28.210Z,4.27
2018-06-22T04:10:55.735Z,3.23
2018-06-22T04:13:23.257Z,4.67
2018-06-22T04:15:50.818Z,3.53
2018-06-22T04:18:18.338Z,2.53
2018-06-22T04:20:45.859Z,5.23
2018-06-22T04:23:13.370Z,5.37
2018-06-22T04:25:40.887Z,5.43
2018-06-22T04:28:08.395Z,4.13
2018-06-22T04:30:35.927Z,7.43
2018-06-22T04:33:03.585Z,4.53
2018-06-22T04:35:31.121Z,3.60
2018-06-22T04:37:58.629Z,5.63
2018-06-22T04:40:26.161Z,4.67
2018-06-22T04:42:53.674Z,5.77
2018-06-22T04:45:21.206Z,4.47
2018-06-22T04:47:48.719Z,4.53
2018-06-22T04:50:16.227Z,5.80
2018-06-22T04:52:43.747Z,10.93
2018-06-22T04:55:11.263Z,4.40
2018-06-22T04:57:38.790Z,4.75
2018-06-22T05:00:06.340Z,6.30
2018-06-22T05:02:33.868Z,4.30
2018-06-22T05:05:01.375Z,2.72
2018-06-22T05:07:28.907Z,5.42
2018-06-22T05:09:56.437Z,3.70
2018-06-22T05:12:23.979Z,5.65
2018-06-22T05:14:51.503Z,6.92
2018-06-22T05:17:19.015Z,5.15
2018-06-22T05:19:46.514Z,4.00
2018-06-22T05:22:14.053Z,5.83
2018-06-22T05:24:41.568Z,3.10
2018-06-22T05:27:09.103Z,5.83
2018-06-22T05:29:36.623Z,4.80
2018-06-22T05:32:04.159Z,6.87
2018-06-22T05:34:31.682Z,5.27
2018-06-22T05:37:12.318Z,5.03
2018-06-22T05:39:39.831Z,7.30
2018-06-22T05:42:07.369Z,6.97
2018-06-22T05:44:34.883Z,5.20
2018-06-22T05:47:02.394Z,6.10
2018-06-22T05:49:29.920Z,6.03
2018-06-22T05:51:57.434Z,5.07
2018-06-22T05:54:25.146Z,5.73
2018-06-22T05:56:52.761Z,6.20
2018-06-22T05:59:20.207Z,5.87
2018-06-22T06:01:47.733Z,5.40
2018-06-22T06:04:15.347Z,3.13
2018-06-22T06:06:42.868Z,9.10
2018-06-22T06:09:11.315Z,4.93
2018-06-22T06:11:38.863Z,7.10
2018-06-22T06:14:06.418Z,8.00
2018-06-22T06:16:33.976Z,7.77
2018-06-22T06:19:01.534Z,12.10
2018-06-22T06:21:29.090Z,8.47
2018-06-22T06:23:56.622Z,3.43
2018-06-22T06:26:24.344Z,7.10
2018-06-22T06:28:51.887Z,2.93
2018-06-22T06:31:19.423Z,7.77
2018-06-22T06:33:47.010Z,4.77
2018-06-22T06:36:14.565Z,8.00
2018-06-22T06:38:42.151Z,4.77
2018-06-22T06:41:09.644Z,5.90
2018-06-22T06:43:37.190Z,5.43
2018-06-22T06:46:04.739Z,8.73
2018-06-22T06:48:32.287Z,6.67
2018-06-22T06:50:59.827Z,4.50
2018-06-22T06:53:27.362Z,7.43
2018-06-22T06:55:54.915Z,6.33
2018-06-22T06:58:22.447Z,8.33
2018-06-22T07:00:49.998Z,6.03
2018-06-22T07:03:17.584Z,3.73
2018-06-22T07:05:45.115Z,6.00
2018-06-22T07:08:12.727Z,6.90
2018-06-22T07:10:40.271Z,5.03
2018-06-22T07:13:07.799Z,6.47
2018-06-22T07:15:40.357Z,12.07
2018-06-22T07:18:08.646Z,4.07
2018-06-22T07:20:36.510Z,11.93
2018-06-22T07:23:04.168Z,5.97
2018-06-22T07:25:31.738Z,4.40
2018-06-22T07:27:59.586Z,4.13
2018-06-22T07:30:27.103Z,8.70
2018-06-22T07:32:54.915Z,3.13
2018-06-22T07:35:22.452Z,6.10
2018-06-22T07:37:49.996Z,4.43
2018-06-22T07:40:17.832Z,5.83
2018-06-22T07:42:58.861Z,6.37
2018-06-22T07:45:26.379Z,5.65
2018-06-22T07:47:53.897Z,6.20
2018-06-22T07:50:21.423Z,5.28
2018-06-22T07:52:48.942Z,4.75
2018-06-22T07:55:16.477Z,6.42
2018-06-22T07:57:43.991Z,4.22
2018-06-22T08:00:11.495Z,14.80
2018-06-22T08:02:39.021Z,5.08
2018-06-22T08:05:06.602Z,4.95
2018-06-22T08:07:34.114Z,5.50
2018-06-22T08:10:01.693Z,4.35
2018-06-22T08:12:29.265Z,9.93
2018-06-22T08:14:56.804Z,4.62
2018-06-22T08:17:24.339Z,5.67
2018-06-22T08:19:51.863Z,7.00
2018-06-22T08:22:19.407Z,7.35
2018-06-22T08:24:46.943Z,6.35
2018-06-22T08:27:14.532Z,6.53
2018-06-22T08:29:42.054Z,5.30
2018-06-22T08:32:09.591Z,4.12
2018-06-22T08:34:37.110Z,4.65
2018-06-22T08:37:04.723Z,7.67
2018-06-22T08:39:32.268Z,10.30
2018-06-22T08:41:59.901Z,5.20
2018-06-22T08:44:27.396Z,6.28
2018-06-22T08:46:54.918Z,5.65
2018-06-22T08:49:22.480Z,7.03
2018-06-22T08:51:50.017Z,5.08
2018-06-22T08:54:17.577Z,3.75
2018-06-22T08:56:45.127Z,4.75
2018-06-22T08:59:12.673Z,5.95
2018-06-22T09:01:40.219Z,7.42
2018-06-22T09:04:07.851Z,3.80
2018-06-22T09:06:35.398Z,7.40
2018-06-22T09:09:05.049Z,3.00
2018-06-22T09:11:32.578Z,5.75
2018-06-22T09:14:00.119Z,4.33
2018-06-22T09:16:27.655Z,4.95
2018-06-22T09:18:55.560Z,3.12
2018-06-22T09:21:23.092Z,5.47
2018-06-22T09:23:50.645Z,3.50
2018-06-22T09:26:18.171Z,6.27
2018-06-22T09:28:45.704Z,6.35
2018-06-22T09:31:13.252Z,5.58
2018-06-22T09:33:40.779Z,3.02
2018-06-22T09:36:08.316Z,3.37
2018-06-22T09:38:35.851Z,4.47
2018-06-22T09:41:03.400Z,2.62
2018-06-22T09:43:30.948Z,4.30
2018-06-22T09:45:58.487Z,3.52
2018-06-22T09:48:26.086Z,3.87
2018-06-22T09:50:53.560Z,4.87
2018-06-22T09:53:21.094Z,3.40
2018-06-22T09:55:48.679Z,2.35
2018-06-22T09:58:16.199Z,4.53
2018-06-22T10:00:49.683Z,2.60
2018-06-22T10:03:17.632Z,7.58
2018-06-22T10:05:45.336Z,3.58
2018-06-22T10:08:12.953Z,3.87
2018-06-22T10:10:40.452Z,2.90
2018-06-22T10:13:07.995Z,4.05
2018-06-22T10:15:35.630Z,4.60
2018-06-22T10:18:03.187Z,4.58
2018-06-22T10:20:31.251Z,4.83
2018-06-22T10:22:58.784Z,5.45
2018-06-22T10:25:26.430Z,1.62
2018-06-22T10:27:54.199Z,2.62
2018-06-22T10:30:21.955Z,3.55
2018-06-22T10:32:49.530Z,4.30
2018-06-22T10:35:17.050Z,2.30
2018-06-22T10:37:44.594Z,4.35
2018-06-22T10:40:12.150Z,3.27
2018-06-22T10:42:39.768Z,2.95
2018-06-22T10:45:07.331Z,4.45
2018-06-22T10:47:35.099Z,8.03
2018-06-22T10:50:02.689Z,2.40
2018-06-22T10:52:30.283Z,4.60
2018-06-22T10:54:57.843Z,1.72
2018-06-22T10:57:25.379Z,2.10
2018-06-22T10:59:53.029Z,1.72
2018-06-22T11:02:20.486Z,1.60
2018-06-22T11:04:48.055Z,2.30
2018-06-22T11:07:15.611Z,2.67
2018-06-22T11:09:43.140Z,2.15
2018-06-22T11:12:10.672Z,3.02
2018-06-22T11:14:38.192Z,1.85
2018-06-22T11:17:05.755Z,3.42
2018-06-22T11:19:33.263Z,2.15
2018-06-22T11:22:00.794Z,1.50
2018-06-22T11:24:28.375Z,2.70
2018-06-22T11:26:55.849Z,2.02
2018-06-22T11:29:23.375Z,3.92
2018-06-22T11:31:50.896Z,2.85
2018-06-22T11:34:18.432Z,1.47
2018-06-22T11:36:45.967Z,1.77
2018-06-22T11:39:13.487Z,0.72
2018-06-22T11:41:41.304Z,1.45
2018-06-22T11:44:09.279Z,2.20
2018-06-22T11:46:36.930Z,1.72
2018-06-22T11:49:04.491Z,1.77
2018-06-22T11:51:32.011Z,1.85
2018-06-22T11:53:59.553Z,2.02
2018-06-22T11:56:27.067Z,1.17
2018-06-22T11:58:54.595Z,3.00
2018-06-22T12:01:22.123Z,2.27
2018-06-22T12:03:49.652Z,1.77
2018-06-22T12:06:17.174Z,2.25
2018-06-22T12:08:44.713Z,9.05
2018-06-22T12:11:12.272Z,0.90
2018-06-22T12:13:39.827Z,5.03
2018-06-22T12:16:33.035Z,1.00
2018-06-22T12:19:00.699Z,1.90
2018-06-22T12:21:28.474Z,1.35
2018-06-22T12:23:56.093Z,2.45
2018-06-22T12:26:23.687Z,1.80
2018-06-22T12:28:51.232Z,1.65
2018-06-22T12:31:18.771Z,2.17
2018-06-22T12:45:57.887Z,1.87
2018-06-22T12:48:25.436Z,1.30
2018-06-22T12:50:52.987Z,1.67
2018-06-22T12:53:20.532Z,2.22
2018-06-22T12:55:48.081Z,2.47
2018-06-22T12:58:15.638Z,0.90
2018-06-22T13:00:43.183Z,1.10
2018-06-22T13:03:10.723Z,1.67
2018-06-22T13:05:38.275Z,1.87
2018-06-22T13:08:05.875Z,0.98
2018-06-22T13:10:33.457Z,1.17
2018-06-22T13:13:00.989Z,1.00
2018-06-22T13:15:28.564Z,0.60
2018-06-22T13:17:56.119Z,0.70
2018-06-22T13:20:23.892Z,1.00
2018-06-22T13:22:51.536Z,3.17
2018-06-22T13:25:19.216Z,1.10
2018-06-22T13:27:46.767Z,3.80
2018-06-22T13:30:14.333Z,3.55
2018-06-22T13:32:41.879Z,1.52
2018-06-22T13:35:09.430Z,2.67
2018-06-22T13:37:36.987Z,3.17
2018-06-22T13:40:04.803Z,2.65
2018-06-22T13:42:32.344Z,2.50
2018-06-22T13:44:59.891Z,2.62
2018-06-22T13:47:27.468Z,1.52
2018-06-22T13:49:55.024Z,2.55
2018-06-22T13:52:22.563Z,3.60
2018-06-22T13:54:50.107Z,0.80
2018-06-22T13:57:17.655Z,1.07
2018-06-22T13:59:45.206Z,1.62
2018-06-22T14:02:12.739Z,1.02
2018-06-22T14:04:46.014Z,3.35
2018-06-22T14:07:13.561Z,2.22
2018-06-22T14:09:41.839Z,0.93
2018-06-22T14:12:09.360Z,0.93
2018-06-22T14:14:36.900Z,0.93
2018-06-22T14:17:04.571Z,2.37
2018-06-22T14:19:32.109Z,1.65
2018-06-22T14:21:59.650Z,1.57
2018-06-22T14:24:27.163Z,1.85
2018-06-22T14:26:54.703Z,1.75
2018-06-22T14:29:22.243Z,2.70
2018-06-22T14:31:49.786Z,0.82
2018-06-22T14:34:17.319Z,1.37
2018-06-22T14:36:44.864Z,1.35
2018-06-22T14:39:12.396Z,0.65
2018-06-22T14:41:39.930Z,0.50
2018-06-22T14:44:07.499Z,0.80
2018-06-22T14:46:35.040Z,1.32
2018-06-22T14:49:02.567Z,2.17
2018-06-22T14:51:30.104Z,3.17
2018-06-22T14:54:03.510Z,1.35
2018-06-22T14:56:36.871Z,0.80
2018-06-22T14:59:10.283Z,1.70
2018-06-22T15:01:43.675Z,1.85
2018-06-22T15:04:16.964Z,4.85
2018-06-22T15:06:50.270Z,2.87
2018-06-22T15:09:17.812Z,1.17
2018-06-22T15:11:45.379Z,2.05
2018-06-22T15:14:12.918Z,1.50
2018-06-22T15:16:40.479Z,1.82
2018-06-22T15:19:08.036Z,2.45
2018-06-22T15:21:35.592Z,0.88
2018-06-22T15:24:09.616Z,1.15
2018-06-22T15:26:37.177Z,1.30
2018-06-22T15:29:04.779Z,0.72
2018-06-22T15:31:32.342Z,0.70
2018-06-22T15:34:05.830Z,0.95
2018-06-22T15:36:39.207Z,0.90
2018-06-22T15:39:14.048Z,1.85
2018-06-22T15:41:47.628Z,1.15
2018-06-22T15:44:20.867Z,0.98
2018-06-22T15:46:54.111Z,2.00
2018-06-22T15:49:27.475Z,2.30
2018-06-22T15:52:00.798Z,1.25
2018-06-22T15:54:34.048Z,0.80
2018-06-22T15:57:01.638Z,1.55
2018-06-22T15:59:29.195Z,3.12
2018-06-22T16:02:01.363Z,1.15
2018-06-22T16:04:28.925Z,1.95
2018-06-22T16:06:56.496Z,1.17
2018-06-22T16:09:24.051Z,1.12
2018-06-22T16:11:51.599Z,1.73
2018-06-22T16:14:24.832Z,0.77
2018-06-22T16:16:58.222Z,1.53
2018-06-22T16:19:31.590Z,0.70
2018-06-22T16:22:04.942Z,1.37
2018-06-22T16:24:38.189Z,1.43
2018-06-22T16:27:06.835Z,1.20
2018-06-22T16:29:34.388Z,1.23
2018-06-22T16:32:01.927Z,2.67
2018-06-22T16:34:29.461Z,2.27
2018-06-22T16:36:56.988Z,1.57
2018-06-22T16:39:24.704Z,1.30
2018-06-22T16:41:52.255Z,1.33
2018-06-22T16:44:19.786Z,2.10
2018-06-22T16:46:47.311Z,1.87
2018-06-22T16:49:14.825Z,1.00
2018-06-22T16:51:42.398Z,2.70
2018-06-22T16:54:09.904Z,1.47
2018-06-22T16:56:37.426Z,3.77
2018-06-22T16:59:04.975Z,2.07
2018-06-22T17:01:32.532Z,3.57
2018-06-22T17:04:00.072Z,9.70
2018-06-22T17:06:32.238Z,5.07
2018-06-22T17:09:05.788Z,4.20
2018-06-22T17:11:39.043Z,3.33
2018-06-22T17:14:12.332Z,4.23
2018-06-22T17:16:45.633Z,4.43
2018-06-22T17:19:20.181Z,4.17
2018-06-22T17:21:47.783Z,3.23
2018-06-22T17:24:15.344Z,7.93
2018-06-22T17:26:42.835Z,4.83
2018-06-22T17:29:10.353Z,8.07
2018-06-22T17:31:37.899Z,4.70
2018-06-22T17:34:05.439Z,2.10
2018-06-22T17:36:32.970Z,4.20
2018-06-22T17:39:00.508Z,3.63
2018-06-22T17:41:28.031Z,2.93
2018-06-22T17:43:55.558Z,5.17
2018-06-22T17:46:23.230Z,3.77
2018-06-22T17:48:50.695Z,4.03
2018-06-22T17:51:18.246Z,5.07
2018-06-22T17:53:45.777Z,5.93
2018-06-22T17:56:17.933Z,7.30
2018-06-22T17:58:51.220Z,6.33
2018-06-22T18:01:29.903Z,6.30
2018-06-22T18:04:03.215Z,9.10
2018-06-22T18:06:37.259Z,8.53
2018-06-22T18:09:07.790Z,6.47
2018-06-22T18:11:41.265Z,6.90
2018-06-22T18:14:08.819Z,9.50
2018-06-22T18:16:36.356Z,8.17
2018-06-22T18:19:03.959Z,4.97
2018-06-22T18:21:31.490Z,4.70
2018-06-22T18:23:59.033Z,4.73
2018-06-22T18:26:26.562Z,6.47
2018-06-22T18:28:54.099Z,4.03
2018-06-22T18:31:21.615Z,7.20
2018-06-22T18:33:49.159Z,7.40
2018-06-22T18:36:16.687Z,6.57
2018-06-22T18:38:44.211Z,6.17
2018-06-22T18:41:11.739Z,6.30
2018-06-22T18:44:44.657Z,7.33
2018-06-22T18:47:12.204Z,3.43
2018-06-22T18:49:39.746Z,8.13
2018-06-22T18:52:12.981Z,4.83
2018-06-22T18:54:46.232Z,4.03
2018-06-22T18:57:19.531Z,10.20
2018-06-22T18:59:51.059Z,3.87
2018-06-22T19:02:24.305Z,4.47
2018-06-22T19:04:51.874Z,4.20
2018-06-22T19:07:19.399Z,4.43
2018-06-22T19:09:46.930Z,7.83
2018-06-22T19:12:14.473Z,5.67
2018-06-22T19:14:41.996Z,6.97
2018-06-22T19:17:09.543Z,7.03
2018-06-22T19:19:37.082Z,5.93
2018-06-22T19:22:04.627Z,5.27
2018-06-22T19:24:32.171Z,5.47
2018-06-22T19:26:59.705Z,4.47
2018-06-22T19:29:27.230Z,4.73
2018-06-22T19:31:54.751Z,3.27
2018-06-22T19:34:28.105Z,7.30
2018-06-22T19:36:55.639Z,7.40
2018-06-22T19:39:23.184Z,5.57
2018-06-22T19:41:50.725Z,6.00
2018-06-22T19:44:24.058Z,4.10
2018-06-22T19:46:57.370Z,6.17
2018-06-22T19:49:30.652Z,6.77
2018-06-22T19:52:03.939Z,8.37
2018-06-22T19:54:31.558Z,9.90
2018-06-22T19:56:59.238Z,9.43
2018-06-22T19:59:27.027Z,7.63
2018-06-22T20:01:54.738Z,9.00
2018-06-22T20:04:22.527Z,7.30
2018-06-22T20:06:50.294Z,9.23
2018-06-22T20:09:17.999Z,5.63
2018-06-22T20:11:45.792Z,6.40
2018-06-22T20:14:24.536Z,8.77
2018-06-22T20:16:52.372Z,8.73
2018-06-22T20:19:20.320Z,8.13
2018-06-22T20:21:48.137Z,13.13
2018-06-22T20:24:20.528Z,14.73
2018-06-22T20:26:48.357Z,19.50
2018-06-22T20:29:16.140Z,15.27
2018-06-22T20:31:43.954Z,9.20
2018-06-22T20:34:17.606Z,10.57
2018-06-22T20:36:51.249Z,8.37
2018-06-22T20:39:24.869Z,13.63
2018-06-22T20:42:13.147Z,10.23
2018-06-22T20:44:50.683Z,8.87
2018-06-22T20:47:25.312Z,7.20
2018-06-22T20:49:58.951Z,6.07
2018-06-22T20:52:27.784Z,7.00
2018-06-22T20:54:55.604Z,10.67
2018-06-22T20:57:36.507Z,7.27
2018-06-22T21:06:05.376Z,11.33
2018-06-22T21:08:33.203Z,12.17
2018-06-22T21:11:00.915Z,11.30
2018-06-22T21:13:28.760Z,8.77
2018-06-22T21:15:56.527Z,9.10
2018-06-22T21:21:34.252Z,10.77
2018-06-22T21:24:21.367Z,12.97
2018-06-22T21:26:57.656Z,9.20
2018-06-22T21:29:31.280Z,11.47
2018-06-22T21:35:22.344Z,9.93
2018-06-22T21:37:56.034Z,11.97
2018-06-22T21:40:23.865Z,9.33
2018-06-22T21:42:51.635Z,12.47
2018-06-22T21:45:27.138Z,8.87
2018-06-22T21:47:55.066Z,13.57
2018-06-22T21:50:22.940Z,13.00
2018-06-22T21:56:04.111Z,12.80
2018-06-22T22:01:38.346Z,13.07
2018-06-22T22:04:11.717Z,12.40
2018-06-22T22:06:39.511Z,9.97
2018-06-22T22:09:08.542Z,12.67
2018-06-22T22:11:55.169Z,10.40
2018-06-22T22:14:24.560Z,15.40
2018-06-22T22:17:05.893Z,15.23
2018-06-22T22:19:33.869Z,11.53
2018-06-22T22:22:01.685Z,14.13
2018-06-22T22:24:30.588Z,14.43
2018-06-22T22:26:58.362Z,8.70
2018-06-22T22:29:26.188Z,13.20
2018-06-22T22:31:55.008Z,9.90
2018-06-22T22:34:22.832Z,12.17
2018-06-22T22:36:50.571Z,14.27
2018-06-22T22:39:18.359Z,13.20
2018-06-22T22:47:57.379Z,15.03
2018-06-22T22:50:25.184Z,11.20
2018-06-22T22:52:52.967Z,18.00
2018-06-22T22:55:20.818Z,8.83
2018-06-22T22:57:48.658Z,11.83
2018-06-22T23:00:16.476Z,7.60
2018-06-22T23:02:44.254Z,10.60
2018-06-22T23:05:12.008Z,13.60
2018-06-22T23:07:39.851Z,11.37
2018-06-22T23:10:07.747Z,14.83
2018-06-22T23:12:35.617Z,14.43
2018-06-22T23:15:03.606Z,8.67
2018-06-22T23:17:31.424Z,11.53
2018-06-22T23:19:59.158Z,10.53
2018-06-22T23:22:38.431Z,9.87
2018-06-22T23:25:06.174Z,15.57
2018-06-22T23:27:33.968Z,10.17
2018-06-22T23:30:01.789Z,10.70
2018-06-22T23:32:29.585Z,14.40
2018-06-22T23:34:57.520Z,12.77
2018-06-22T23:37:25.293Z,12.23
2018-06-22T23:39:53.047Z,8.50
2018-06-22T23:42:21.624Z,15.87
2018-06-22T23:44:49.392Z,10.17
2018-06-22T23:47:17.127Z,11.03
2018-06-22T23:49:44.935Z,9.50
2018-06-22T23:52:12.820Z,12.87
2018-06-22T23:54:40.551Z,13.63
2018-06-22T23:57:08.374Z,9.40
2018-06-22T23:59:36.195Z,10.07
